Time;durP1;ratioP1;P1;durP2;ratioP2;P2;SDS_P1;SDS_P2;PMS_P1;PMS_P2;Temp;Humidity;BMP_temperature;BMP_pressure;BME280_temperature;BME280_humidity;BME280_pressure;Samples;Min_cycle;Max_cycle;Signal;HPM_P1;HPM_P2
2024/03/18 00:00:14;;;;;;;6.35;3.47;;;;;;;;;;5062611;28;20045;-65
2024/03/18 00:02:45;;;;;;;9.60;3.58;;;;;;;;;;5065924;28;20039;-65
2024/03/18 00:05:13;;;;;;;7.88;3.97;;;;;;;;;;5069613;28;20045;-66
2024/03/18 00:07:39;;;;;;;8.50;4.38;;;;;;;;;;5058512;28;20067;-65
2024/03/18 00:10:09;;;;;;;7.28;3.30;;;;;;;;;;5061143;28;20064;-65
2024/03/18 00:12:38;;;;;;;;;;;;;;;;;;5064412;28;20493;-65
2024/03/18 00:15:06;;;;;;;9.50;3.60;;;;;;;;;;5058271;28;19916;-66
2024/03/18 00:17:34;;;;;;;6.18;3.25;;;;;;;;;;5062838;28;20040;-65
2024/03/18 00:20:04;;;;;;;9.75;3.47;;;;;;;;;;5065043;28;20055;-65
2024/03/18 00:22:35;;;;;;;9.00;3.30;;;;;;;;;;5066278;28;20040;-65
2024/03/18 00:25:01;;;;;;;6.97;3.30;;;;;;;;;;5069467;28;20401;-66
2024/03/18 00:27:28;;;;;;;7.72;3.13;;;;;;;;;;5069543;28;20051;-65
2024/03/18 00:29:54;;;;;;;8.85;3.70;;;;;;;;;;5064296;28;20059;-65
2024/03/18 00:32:20;;;;;;;9.63;3.60;;;;;;;;;;5067315;28;20374;-65
2024/03/18 00:34:46;;;;;;;7.65;3.50;;;;;;;;;;5064962;28;20490;-65
2024/03/18 00:37:13;;;;;;;9.82;3.65;;;;;;;;;;5071383;28;20037;-67
2024/03/18 00:39:39;;;;;;;8.20;3.72;;;;;;;;;;5072646;28;20051;-65
2024/03/18 00:42:05;;;;;;;10.65;5.25;;;;;;;;;;5067319;28;20136;-65
2024/03/18 00:44:31;;;;;;;10.45;4.63;;;;;;;;;;5065966;28;20040;-65
2024/03/18 00:46:57;;;;;;;12.07;4.28;;;;;;;;;;5067907;28;20060;-65
2024/03/18 00:49:24;;;;;;;9.75;4.50;;;;;;;;;;5074039;28;20043;-65
2024/03/18 00:51:50;;;;;;;7.85;4.47;;;;;;;;;;5070658;28;20579;-65
2024/03/18 00:54:16;;;;;;;8.25;4.80;;;;;;;;;;5066240;28;20055;-65
2024/03/18 00:56:44;;;;;;;8.80;4.68;;;;;;;;;;5068477;28;20041;-65
2024/03/18 00:59:10;;;;;;;9.73;4.90;;;;;;;;;;5059417;28;20154;-67
2024/03/18 01:01:37;;;;;;;11.68;5.97;;;;;;;;;;5068096;28;20044;-65
2024/03/18 01:04:04;;;;;;;9.43;5.15;;;;;;;;;;5070533;28;20048;-65
2024/03/18 01:06:30;;;;;;;9.70;4.38;;;;;;;;;;5066342;28;20028;-65
2024/03/18 01:08:57;;;;;;;11.93;4.07;;;;;;;;;;5064323;28;20037;-64
2024/03/18 01:11:23;;;;;;;9.43;4.18;;;;;;;;;;5065366;28;20057;-67
2024/03/18 01:13:49;;;;;;;9.50;4.38;;;;;;;;;;5073395;28;20047;-65
2024/03/18 01:16:22;;;;;;;10.23;4.25;;;;;;;;;;5064322;28;20032;-65
2024/03/18 01:18:48;;;;;;;12.70;5.75;;;;;;;;;;5072543;28;20055;-65
2024/03/18 01:21:15;;;;;;;8.73;4.30;;;;;;;;;;5070158;28;20044;-65
2024/03/18 01:23:42;;;;;;;9.32;4.10;;;;;;;;;;5065285;28;20045;-65
2024/03/18 01:26:08;;;;;;;9.20;4.20;;;;;;;;;;5060677;28;20045;-65
2024/03/18 01:28:34;;;;;;;8.32;3.97;;;;;;;;;;5068573;28;20521;-64
2024/03/18 01:31:04;;;;;;;10.18;4.45;;;;;;;;;;5060921;28;20037;-65
2024/03/18 01:33:33;;;;;;;15.00;5.82;;;;;;;;;;5068324;28;20039;-64
2024/03/18 01:36:00;;;;;;;10.15;4.55;;;;;;;;;;5061594;28;20366;-64
2024/03/18 01:38:28;;;;;;;9.10;5.15;;;;;;;;;;5066710;28;20037;-65
2024/03/18 01:40:55;;;;;;;8.48;4.45;;;;;;;;;;5065838;28;20039;-64
2024/03/18 01:43:22;;;;;;;9.40;4.88;;;;;;;;;;5071927;28;20485;-64
2024/03/18 01:45:48;;;;;;;8.40;4.50;;;;;;;;;;5061313;28;20045;-64
2024/03/18 01:48:15;;;;;;;12.77;5.45;;;;;;;;;;5057374;28;20514;-65
2024/03/18 01:50:42;;;;;;;14.95;7.47;;;;;;;;;;5074586;28;20058;-65
2024/03/18 01:53:11;;;;;;;17.73;7.30;;;;;;;;;;5063419;28;20029;-65
2024/03/18 01:55:38;;;;;;;;;;;;;;;;;;5058400;28;20044;-65
2024/03/18 01:58:06;;;;;;;12.73;5.72;;;;;;;;;;5068725;28;19913;-65
2024/03/18 02:00:35;;;;;;;7.38;4.50;;;;;;;;;;5068116;28;20053;-66
2024/03/18 02:03:02;;;;;;;;;;;;;;;;;;5065179;28;20044;-65
2024/03/18 02:05:28;;;;;;;7.75;3.67;;;;;;;;;;5074128;28;20033;-64
2024/03/18 02:07:54;;;;;;;10.80;4.05;;;;;;;;;;5062751;28;20049;-65
2024/03/18 02:10:20;;;;;;;9.68;4.18;;;;;;;;;;5063399;28;20039;-65
2024/03/18 02:12:47;;;;;;;12.88;4.30;;;;;;;;;;5064358;28;20028;-64
2024/03/18 02:15:14;;;;;;;12.50;4.15;;;;;;;;;;5067115;28;20060;-65
2024/03/18 02:17:40;;;;;;;12.20;4.32;;;;;;;;;;5074093;28;20039;-64
2024/03/18 02:20:09;;;;;;;13.63;3.40;;;;;;;;;;5060953;28;20061;-65
2024/03/18 02:22:38;;;;;;;6.37;3.37;;;;;;;;;;5098723;28;20056;-65
2024/03/18 02:25:04;;;;;;;10.70;5.15;;;;;;;;;;5055106;28;20447;-66
2024/03/18 02:27:30;;;;;;;7.30;4.10;;;;;;;;;;5071473;28;20412;-65
2024/03/18 02:29:57;;;;;;;7.57;3.17;;;;;;;;;;5069091;28;20028;-65
2024/03/18 02:32:23;;;;;;;8.85;4.05;;;;;;;;;;5068500;28;20055;-64
2024/03/18 02:34:49;;;;;;;6.68;3.15;;;;;;;;;;5066982;28;20506;-65
2024/03/18 02:37:15;;;;;;;8.63;3.00;;;;;;;;;;5061948;28;20049;-65
2024/03/18 02:39:42;;;;;;;7.55;3.03;;;;;;;;;;5075865;28;20047;-63
2024/03/18 02:42:08;;;;;;;10.27;3.10;;;;;;;;;;5066350;28;20485;-63
2024/03/18 02:44:34;;;;;;;6.68;3.20;;;;;;;;;;5062967;28;20051;-63
2024/03/18 02:47:01;;;;;;;6.93;3.10;;;;;;;;;;5064331;28;20048;-64
2024/03/18 02:49:27;;;;;;;7.20;3.42;;;;;;;;;;5070406;28;20059;-64
2024/03/18 02:51:53;;;;;;;11.05;3.75;;;;;;;;;;5063073;28;20044;-64
2024/03/18 02:54:19;;;;;;;12.20;4.60;;;;;;;;;;5063674;28;20059;-64
2024/03/18 02:56:45;;;;;;;9.82;6.28;;;;;;;;;;5065433;28;20048;-64
2024/03/18 02:59:11;;;;;;;15.23;7.00;;;;;;;;;;5071762;28;20056;-64
2024/03/18 03:01:37;;;;;;;14.05;7.38;;;;;;;;;;5065904;28;20024;-64
2024/03/18 03:04:03;;;;;;;17.08;7.95;;;;;;;;;;5063675;28;20048;-64
2024/03/18 03:06:29;;;;;;;22.60;8.05;;;;;;;;;;5063535;28;20044;-64
2024/03/18 03:08:57;;;;;;;15.07;7.82;;;;;;;;;;5065177;28;20044;-64
2024/03/18 03:11:23;;;;;;;14.30;7.68;;;;;;;;;;5066414;28;20055;-65
2024/03/18 03:13:49;;;;;;;13.48;8.13;;;;;;;;;;5072645;28;20399;-65
2024/03/18 03:16:15;;;;;;;21.75;9.63;;;;;;;;;;5068341;28;20513;-65
2024/03/18 03:18:41;;;;;;;20.15;7.85;;;;;;;;;;5061102;28;20032;-65
2024/03/18 03:21:09;;;;;;;22.17;9.27;;;;;;;;;;5062095;28;20048;-64
2024/03/18 03:23:36;;;;;;;13.98;7.65;;;;;;;;;;5067401;28;20055;-67
2024/03/18 03:26:02;;;;;;;16.02;7.75;;;;;;;;;;5056412;28;20045;-68
2024/03/18 03:28:29;;;;;;;15.63;8.65;;;;;;;;;;5067833;28;20051;-67
2024/03/18 03:31:05;;;;;;;26.38;9.55;;;;;;;;;;5066041;28;20339;-68
2024/03/18 03:33:35;;;;;;;15.68;8.05;;;;;;;;;;5070460;28;20045;-67
2024/03/18 03:36:02;;;;;;;;;;;;;;;;;;5064505;28;20036;-67
2024/03/18 03:38:28;;;;;;;25.17;9.68;;;;;;;;;;5071493;28;19912;-67
2024/03/18 03:40:54;;;;;;;20.63;9.65;;;;;;;;;;5059485;28;20035;-67
2024/03/18 03:43:23;;;;;;;21.98;9.10;;;;;;;;;;5063154;28;20048;-68
2024/03/18 03:45:56;;;;;;;21.23;9.02;;;;;;;;;;5067187;28;20036;-67
2024/03/18 03:48:26;;;;;;;17.80;8.73;;;;;;;;;;5066692;28;20673;-67
2024/03/18 03:50:53;;;;;;;18.85;8.50;;;;;;;;;;5060273;28;20040;-67
2024/03/18 03:53:21;;;;;;;15.82;6.80;;;;;;;;;;5075109;28;20059;-67
2024/03/18 03:55:51;;;;;;;10.25;5.13;;;;;;;;;;5072924;28;20036;-68
2024/03/18 03:58:18;;;;;;;11.68;5.13;;;;;;;;;;5070116;28;20051;-68
2024/03/18 04:00:45;;;;;;;11.90;4.00;;;;;;;;;;5068009;28;20044;-68
2024/03/18 04:03:17;;;;;;;11.55;5.03;;;;;;;;;;5065678;28;20405;-68
2024/03/18 04:05:43;;;;;;;10.23;4.97;;;;;;;;;;5062471;28;20033;-68
2024/03/18 04:08:09;;;;;;;10.32;4.60;;;;;;;;;;5064147;28;20036;-68
2024/03/18 04:10:36;;;;;;;15.27;5.25;;;;;;;;;;5073503;28;20055;-68
2024/03/18 04:13:03;;;;;;;14.55;5.43;;;;;;;;;;5066654;28;20366;-69
2024/03/18 04:15:29;;;;;;;10.48;5.50;;;;;;;;;;5068783;28;20509;-68
2024/03/18 04:17:55;;;;;;;13.65;5.85;;;;;;;;;;5071096;28;20024;-68
2024/03/18 04:20:22;;;;;;;11.68;5.13;;;;;;;;;;5064323;28;20045;-68
2024/03/18 04:22:50;;;;;;;12.45;5.38;;;;;;;;;;5065145;28;20040;-67
2024/03/18 04:25:17;;;;;;;15.40;6.00;;;;;;;;;;5065460;28;20067;-68
2024/03/18 04:27:47;;;;;;;11.95;4.97;;;;;;;;;;5066801;28;20055;-69
2024/03/18 04:30:19;;;;;;;8.25;4.50;;;;;;;;;;5063079;28;20043;-69
2024/03/18 04:32:48;;;;;;;11.07;4.38;;;;;;;;;;5062812;28;20044;-67
2024/03/18 04:35:15;;;;;;;9.32;4.53;;;;;;;;;;5067556;28;20033;-67
2024/03/18 04:37:47;;;;;;;9.80;4.43;;;;;;;;;;5073697;28;20028;-67
2024/03/18 04:40:14;;;;;;;9.48;4.85;;;;;;;;;;5063719;28;20375;-67
2024/03/18 04:42:40;;;;;;;18.48;5.85;;;;;;;;;;5063807;28;20548;-68
2024/03/18 04:45:07;;;;;;;12.93;4.28;;;;;;;;;;5067593;28;20053;-70
2024/03/18 04:47:39;;;;;;;7.13;3.72;;;;;;;;;;5066131;28;20390;-67
2024/03/18 04:50:08;;;;;;;16.63;5.80;;;;;;;;;;5072241;28;20398;-68
2024/03/18 04:52:38;;;;;;;18.23;6.75;;;;;;;;;;5069390;28;20044;-68
2024/03/18 04:55:05;;;;;;;;;;;;;;;;;;5075574;28;20044;-69
2024/03/18 04:57:35;;;;;;;11.68;4.30;;;;;;;;;;5071593;28;19912;-67
2024/03/18 05:00:06;;;;;;;6.63;3.25;;;;;;;;;;5078656;28;20500;-67
2024/03/18 05:02:32;;;;;;;6.30;3.63;;;;;;;;;;5065834;28;20040;-67
2024/03/18 05:04:58;;;;;;;9.80;3.70;;;;;;;;;;5068965;28;20417;-67
2024/03/18 05:07:24;;;;;;;6.60;3.60;;;;;;;;;;5062666;28;20064;-67
2024/03/18 05:09:55;;;;;;;11.63;3.60;;;;;;;;;;5071491;28;20036;-67
2024/03/18 05:12:21;;;;;;;8.10;3.42;;;;;;;;;;5065121;28;20148;-67
2024/03/18 05:14:50;;;;;;;8.25;3.60;;;;;;;;;;5063733;28;20409;-67
2024/03/18 05:17:17;;;;;;;9.63;4.00;;;;;;;;;;5065322;28;20041;-67
2024/03/18 05:19:44;;;;;;;11.38;3.83;;;;;;;;;;5064828;28;20043;-68
2024/03/18 05:22:12;;;;;;;15.10;4.32;;;;;;;;;;5068261;28;20032;-66
2024/03/18 05:24:43;;;;;;;12.13;4.00;;;;;;;;;;5060514;28;20052;-67
2024/03/18 05:27:13;;;;;;;8.85;4.05;;;;;;;;;;5068923;28;20350;-66
2024/03/18 05:29:40;;;;;;;7.13;3.35;;;;;;;;;;5068887;28;20032;-68
2024/03/18 05:32:09;;;;;;;10.57;3.33;;;;;;;;;;5065867;28;20032;-67
2024/03/18 05:34:38;;;;;;;10.52;3.90;;;;;;;;;;5061426;28;20044;-67
2024/03/18 05:37:06;;;;;;;;;;;;;;;;;;5065551;28;20036;-67
2024/03/18 05:39:33;;;;;;;11.82;3.50;;;;;;;;;;5073374;28;20308;-67
2024/03/18 05:41:59;;;;;;;7.05;3.50;;;;;;;;;;5069637;28;20138;-67
2024/03/18 05:44:25;;;;;;;8.02;3.95;;;;;;;;;;5068283;28;20024;-68
2024/03/18 05:46:52;;;;;;;15.13;5.97;;;;;;;;;;5071163;28;20032;-69
2024/03/18 05:49:18;;;;;;;12.98;4.53;;;;;;;;;;5065759;28;20024;-68
2024/03/18 05:51:48;;;;;;;10.35;3.28;;;;;;;;;;5071400;28;20039;-67
2024/03/18 05:54:15;;;;;;;9.57;4.63;;;;;;;;;;5082001;28;20044;-67
2024/03/18 05:56:42;;;;;;;10.88;4.20;;;;;;;;;;5070093;28;20044;-68
2024/03/18 05:59:11;;;;;;;11.45;4.72;;;;;;;;;;5066198;28;20393;-66
2024/03/18 06:01:41;;;;;;;9.43;3.85;;;;;;;;;;5067077;28;20032;-67
2024/03/18 06:04:08;;;;;;;12.18;4.32;;;;;;;;;;5068691;28;20461;-65
2024/03/18 06:06:34;;;;;;;19.50;6.70;;;;;;;;;;5068442;28;20032;-63
2024/03/18 06:09:04;;;;;;;48.80;12.88;;;;;;;;;;5067829;28;20420;-63
2024/03/18 06:11:31;;;;;;;31.35;8.65;;;;;;;;;;5071374;28;20571;-63
2024/03/18 06:13:57;;;;;;;20.27;6.70;;;;;;;;;;5071415;28;20414;-64
2024/03/18 06:16:23;;;;;;;13.18;5.30;;;;;;;;;;5064546;28;20045;-63
2024/03/18 06:18:50;;;;;;;20.52;5.72;;;;;;;;;;5069194;28;20032;-64
2024/03/18 06:21:17;;;;;;;15.38;5.20;;;;;;;;;;5062449;28;20037;-63
2024/03/18 06:23:54;;;;;;;22.95;7.80;;;;;;;;;;5066413;28;20500;-62
2024/03/18 06:26:21;;;;;;;23.83;9.05;;;;;;;;;;5062132;28;20029;-62
2024/03/18 06:28:47;;;;;;;26.02;11.02;;;;;;;;;;5060037;28;20139;-63
2024/03/18 06:31:14;;;;;;;20.02;10.23;;;;;;;;;;5057212;28;20057;-63
2024/03/18 06:33:41;;;;;;;25.75;11.60;;;;;;;;;;5062013;28;20048;-64
2024/03/18 06:36:10;;;;;;;25.45;11.80;;;;;;;;;;5065705;28;20056;-64
2024/03/18 06:38:39;;;;;;;;;;;;;;;;;;5067893;28;20048;-64
2024/03/18 06:41:09;;;;;;;23.93;10.90;;;;;;;;;;5064101;28;19916;-64
2024/03/18 06:43:38;;;;;;;23.65;10.68;;;;;;;;;;5068082;28;20028;-64
2024/03/18 06:46:05;;;;;;;21.52;10.85;;;;;;;;;;5066248;28;20037;-63
2024/03/18 06:48:32;;;;;;;25.55;13.32;;;;;;;;;;5068954;28;20028;-63
2024/03/18 06:50:59;;;;;;;26.33;14.57;;;;;;;;;;5069410;28;20024;-64
2024/03/18 06:53:25;;;;;;;23.67;13.82;;;;;;;;;;5069440;28;20390;-64
2024/03/18 06:55:51;;;;;;;21.92;10.80;;;;;;;;;;5066277;28;20048;-64
2024/03/18 06:58:21;;;;;;;21.55;11.30;;;;;;;;;;5063924;28;20055;-63
2024/03/18 07:00:47;;;;;;;25.02;12.45;;;;;;;;;;5070492;28;20048;-63
2024/03/18 07:03:13;;;;;;;27.05;14.30;;;;;;;;;;5068932;28;20040;-64
2024/03/18 07:05:40;;;;;;;29.45;15.07;;;;;;;;;;5064595;28;20056;-63
2024/03/18 07:08:06;;;;;;;29.80;13.68;;;;;;;;;;5070169;28;20058;-64
2024/03/18 07:10:32;;;;;;;27.25;13.30;;;;;;;;;;5067918;28;20033;-65
2024/03/18 07:12:59;;;;;;;24.38;11.70;;;;;;;;;;5069328;28;20044;-64
2024/03/18 07:15:25;;;;;;;20.60;7.63;;;;;;;;;;5068758;28;20048;-65
2024/03/18 07:17:51;;;;;;;15.02;7.05;;;;;;;;;;5067017;28;20052;-64
2024/03/18 07:20:17;;;;;;;17.20;7.80;;;;;;;;;;5063295;28;20620;-64
2024/03/18 07:22:43;;;;;;;16.75;8.75;;;;;;;;;;5070255;28;20119;-64
2024/03/18 07:25:11;;;;;;;21.73;10.88;;;;;;;;;;5070256;28;20028;-63
2024/03/18 07:27:39;;;;;;;13.85;7.97;;;;;;;;;;5069458;28;20649;-63
2024/03/18 07:30:06;;;;;;;12.77;7.28;;;;;;;;;;5066112;28;20040;-64
2024/03/18 07:32:33;;;;;;;10.85;6.57;;;;;;;;;;5064589;28;20417;-64
2024/03/18 07:34:59;;;;;;;12.40;6.22;;;;;;;;;;5055444;28;20045;-64
2024/03/18 07:37:28;;;;;;;9.52;6.13;;;;;;;;;;5067951;28;20405;-64
2024/03/18 07:39:55;;;;;;;11.73;6.38;;;;;;;;;;5063658;28;20048;-63
2024/03/18 07:42:21;;;;;;;9.13;5.75;;;;;;;;;;5067708;28;20024;-64
2024/03/18 07:44:47;;;;;;;9.07;6.07;;;;;;;;;;5066671;28;20047;-64
2024/03/18 07:47:13;;;;;;;11.50;5.65;;;;;;;;;;5068221;28;20029;-64
2024/03/18 07:49:39;;;;;;;8.13;5.68;;;;;;;;;;5070875;28;20024;-64
2024/03/18 07:52:05;;;;;;;8.65;5.45;;;;;;;;;;5065233;28;20043;-64
2024/03/18 07:54:33;;;;;;;10.95;6.40;;;;;;;;;;5065679;28;20567;-64
2024/03/18 07:57:01;;;;;;;11.23;6.68;;;;;;;;;;5070099;28;20051;-64
2024/03/18 07:59:27;;;;;;;15.43;9.40;;;;;;;;;;5069750;28;20055;-63
2024/03/18 08:01:53;;;;;;;12.98;6.28;;;;;;;;;;5068359;28;20041;-66
2024/03/18 08:04:20;;;;;;;9.07;4.85;;;;;;;;;;5065665;28;20024;-64
2024/03/18 08:06:46;;;;;;;5.03;4.05;;;;;;;;;;5066890;28;20028;-63
2024/03/18 08:09:17;;;;;;;7.90;4.60;;;;;;;;;;5065082;28;20033;-64
2024/03/18 08:11:45;;;;;;;8.60;4.45;;;;;;;;;;5062430;28;20409;-63
2024/03/18 08:14:12;;;;;;;7.03;4.10;;;;;;;;;;5065910;28;20041;-64
2024/03/18 08:16:39;;;;;;;6.35;3.90;;;;;;;;;;5064296;28;20055;-64
2024/03/18 08:19:06;;;;;;;5.70;4.10;;;;;;;;;;5063039;28;20040;-63
2024/03/18 08:21:33;;;;;;;7.13;5.18;;;;;;;;;;5060740;28;20052;-64
2024/03/18 08:24:00;;;;;;;10.27;8.40;;;;;;;;;;5063971;28;20044;-65
2024/03/18 08:26:28;;;;;;;10.18;7.57;;;;;;;;;;5062554;28;20052;-63
2024/03/18 08:28:55;;;;;;;12.20;7.97;;;;;;;;;;5061662;28;20047;-65
2024/03/18 08:31:21;;;;;;;11.98;8.35;;;;;;;;;;5059011;28;20029;-64
2024/03/18 08:33:47;;;;;;;14.23;8.13;;;;;;;;;;5067448;28;20427;-64
2024/03/18 08:36:13;;;;;;;11.00;8.20;;;;;;;;;;5067941;28;20525;-63
2024/03/18 08:38:39;;;;;;;11.30;8.55;;;;;;;;;;5065128;28;20045;-66
2024/03/18 08:41:07;;;;;;;12.10;8.30;;;;;;;;;;5069779;28;20401;-64
2024/03/18 08:43:33;;;;;;;12.60;8.63;;;;;;;;;;5070042;28;20051;-64
2024/03/18 08:46:05;;;;;;;12.27;7.80;;;;;;;;;;5082421;28;20063;-63
2024/03/18 08:48:34;;;;;;;9.98;7.72;;;;;;;;;;5068788;28;20050;-64
2024/03/18 08:51:00;;;;;;;11.95;8.25;;;;;;;;;;5068223;28;20028;-64
2024/03/18 08:53:26;;;;;;;10.77;7.60;;;;;;;;;;5069384;28;20437;-63
2024/03/18 08:55:54;;;;;;;10.65;8.10;;;;;;;;;;5061022;28;20037;-64
2024/03/18 08:58:21;;;;;;;10.18;8.25;;;;;;;;;;5061734;28;20536;-65
2024/03/18 09:00:48;;;;;;;11.90;7.85;;;;;;;;;;5062638;28;20032;-64
2024/03/18 09:03:15;;;;;;;15.63;9.88;;;;;;;;;;5063587;28;20056;-64
2024/03/18 09:05:41;;;;;;;14.07;10.65;;;;;;;;;;5069396;28;20049;-63
2024/03/18 09:08:07;;;;;;;10.30;8.32;;;;;;;;;;5070369;28;20060;-64
2024/03/18 09:10:33;;;;;;;9.40;7.22;;;;;;;;;;5060864;28;20035;-64
2024/03/18 09:13:00;;;;;;;13.82;8.95;;;;;;;;;;5066784;28;20052;-64
2024/03/18 09:15:26;;;;;;;10.45;8.23;;;;;;;;;;5070786;28;20052;-64
2024/03/18 09:17:55;;;;;;;13.52;6.90;;;;;;;;;;5061301;28;20048;-64
2024/03/18 09:20:21;;;;;;;7.35;5.22;;;;;;;;;;5073014;28;20032;-64
2024/03/18 09:22:47;;;;;;;6.22;4.05;;;;;;;;;;5065638;28;20063;-65
2024/03/18 09:25:18;;;;;;;4.72;3.38;;;;;;;;;;5069341;28;20037;-65
2024/03/18 09:27:44;;;;;;;4.50;3.40;;;;;;;;;;5070126;28;20482;-63
2024/03/18 09:30:10;;;;;;;6.47;3.30;;;;;;;;;;5065283;28;20020;-62
2024/03/18 09:32:37;;;;;;;6.60;3.78;;;;;;;;;;5066549;28;20043;-63
2024/03/18 09:35:03;;;;;;;8.68;4.10;;;;;;;;;;5070328;28;20043;-63
2024/03/18 09:37:30;;;;;;;9.45;3.97;;;;;;;;;;5065976;28;20045;-63
2024/03/18 09:39:56;;;;;;;7.45;4.03;;;;;;;;;;5069721;28;20397;-63
2024/03/18 09:42:22;;;;;;;5.05;4.00;;;;;;;;;;5065093;28;21579;-64
2024/03/18 09:44:49;;;;;;;8.30;3.92;;;;;;;;;;5061214;28;20107;-63
2024/03/18 09:47:21;;;;;;;11.23;4.28;;;;;;;;;;5070062;28;20035;-63
2024/03/18 09:49:48;;;;;;;5.82;3.80;;;;;;;;;;5069320;28;20044;-63
2024/03/18 09:52:17;;;;;;;10.52;5.85;;;;;;;;;;5066697;28;20024;-65
2024/03/18 09:54:46;;;;;;;7.95;5.60;;;;;;;;;;5072469;28;20039;-63
2024/03/18 09:57:18;;;;;;;6.80;4.10;;;;;;;;;;5070679;28;20032;-63
2024/03/18 09:59:48;;;;;;;6.45;3.78;;;;;;;;;;5075263;28;20032;-63
2024/03/18 10:02:16;;;;;;;6.18;3.30;;;;;;;;;;5067031;28;20040;-63
2024/03/18 10:04:42;;;;;;;5.72;3.92;;;;;;;;;;5071244;28;20037;-63
2024/03/18 10:07:12;;;;;;;7.60;5.07;;;;;;;;;;5071348;28;20055;-64
2024/03/18 10:09:40;;;;;;;7.80;5.35;;;;;;;;;;5069947;28;20058;-63
2024/03/18 10:12:17;;;;;;;13.05;7.03;;;;;;;;;;5071136;28;20051;-62
2024/03/18 10:14:43;;;;;;;9.68;6.05;;;;;;;;;;5064983;28;20039;-63
2024/03/18 10:17:18;;;;;;;9.00;6.40;;;;;;;;;;5063865;28;20028;-63
2024/03/18 10:19:45;;;;;;;10.73;6.40;;;;;;;;;;5066159;28;20037;-62
2024/03/18 10:22:12;;;;;;;9.43;5.75;;;;;;;;;;5069203;28;20028;-61
2024/03/18 10:24:44;;;;;;;11.57;6.07;;;;;;;;;;5068084;28;20029;-62
2024/03/18 10:27:12;;;;;;;10.43;6.82;;;;;;;;;;5066558;28;20404;-61
2024/03/18 10:29:40;;;;;;;12.32;6.75;;;;;;;;;;5067955;28;20036;-62
2024/03/18 10:32:21;;;;;;;12.35;6.30;;;;;;;;;;5069068;28;20041;-63
2024/03/18 10:34:50;;;;;;;9.80;5.90;;;;;;;;;;5063927;28;20028;-63
2024/03/18 10:37:21;;;;;;;9.75;5.93;;;;;;;;;;5065691;28;20045;-62
2024/03/18 10:39:54;;;;;;;10.57;7.13;;;;;;;;;;5069073;28;20043;-63
2024/03/18 10:42:20;;;;;;;11.90;6.88;;;;;;;;;;5069843;28;20024;-63
2024/03/18 10:45:02;;;;;;;12.02;7.72;;;;;;;;;;5066869;28;20044;-63
2024/03/18 10:47:29;;;;;;;10.80;7.75;;;;;;;;;;5067594;28;20040;-62
2024/03/18 10:49:57;;;;;;;13.63;9.43;;;;;;;;;;5070029;28;20037;-63
2024/03/18 10:52:24;;;;;;;21.30;13.38;;;;;;;;;;5067526;28;20032;-62
2024/03/18 10:54:51;;;;;;;20.25;12.80;;;;;;;;;;5071893;28;20031;-63
2024/03/18 10:57:17;;;;;;;20.33;11.27;;;;;;;;;;5092111;28;20090;-63
2024/03/18 10:59:44;;;;;;;23.98;13.20;;;;;;;;;;5068951;28;20040;-62
2024/03/18 11:02:11;;;;;;;44.17;21.92;;;;;;;;;;5062815;28;20059;-61
2024/03/18 11:04:41;;;;;;;22.67;11.90;;;;;;;;;;5067150;28;20043;-62
2024/03/18 11:07:09;;;;;;;;;;;;;;;;;;5071334;28;20028;-62
2024/03/18 11:09:40;;;;;;;12.55;7.28;;;;;;;;;;5061447;28;19908;-62
2024/03/18 11:12:36;;;;;;;12.40;6.97;;;;;;;;;;5067415;28;20389;-62
2024/03/18 11:15:06;;;;;;;21.15;11.43;;;;;;;;;;5065314;28;20043;-62
2024/03/18 11:17:43;;;;;;;39.35;22.67;;;;;;;;;;5068546;28;20036;-61
2024/03/18 11:20:20;;;;;;;28.67;15.68;;;;;;;;;;5060352;28;20036;-62
2024/03/18 11:22:59;;;;;;;29.45;17.17;;;;;;;;;;5057198;28;20045;-61
2024/03/18 11:25:28;;;;;;;19.70;10.20;;;;;;;;;;5062672;28;20040;-62
2024/03/18 11:27:56;;;;;;;12.30;7.78;;;;;;;;;;5068905;28;20044;-62
2024/03/18 11:30:24;;;;;;;10.15;7.32;;;;;;;;;;5064107;28;20037;-62
2024/03/18 11:32:51;;;;;;;14.25;7.63;;;;;;;;;;5070261;28;20408;-62
2024/03/18 11:35:17;;;;;;;14.27;7.50;;;;;;;;;;5066850;28;20433;-63
2024/03/18 11:37:47;;;;;;;17.50;9.45;;;;;;;;;;5069874;28;20039;-63
2024/03/18 11:40:16;;;;;;;19.05;11.52;;;;;;;;;;5068928;28;20045;-61
2024/03/18 11:42:45;;;;;;;17.00;10.25;;;;;;;;;;5064303;28;20052;-63
2024/03/18 11:45:21;;;;;;;13.48;8.48;;;;;;;;;;5063527;28;20036;-62
2024/03/18 11:47:57;;;;;;;11.15;6.72;;;;;;;;;;5069021;28;20043;-62
2024/03/18 11:50:24;;;;;;;15.00;7.72;;;;;;;;;;5068060;28;20044;-63
2024/03/18 11:52:53;;;;;;;12.98;7.57;;;;;;;;;;5066936;28;20040;-62
2024/03/18 11:55:19;;;;;;;14.27;7.85;;;;;;;;;;5069822;28;20059;-62
2024/03/18 11:57:45;;;;;;;17.42;8.38;;;;;;;;;;5070114;28;20063;-62
2024/03/18 12:00:12;;;;;;;16.52;8.60;;;;;;;;;;5072417;28;20036;-62
2024/03/18 12:02:43;;;;;;;;;;;;;;;;;;5068322;28;20048;-62
2024/03/18 12:05:10;;;;;;;16.27;9.43;;;;;;;;;;5066373;28;19918;-61
2024/03/18 12:07:37;;;;;;;14.95;10.55;;;;;;;;;;5069732;28;20035;-61
2024/03/18 12:10:04;;;;;;;13.45;9.50;;;;;;;;;;5062936;28;20060;-61
2024/03/18 12:12:33;;;;;;;15.98;9.40;;;;;;;;;;5065351;28;20063;-61
2024/03/18 12:15:00;;;;;;;16.33;8.95;;;;;;;;;;5061780;28;20052;-61
2024/03/18 12:17:27;;;;;;;12.85;8.43;;;;;;;;;;5072027;28;20055;-61
2024/03/18 12:20:00;;;;;;;15.23;8.50;;;;;;;;;;5062416;28;20494;-61
2024/03/18 12:22:30;;;;;;;14.40;7.75;;;;;;;;;;5069079;28;20051;-61
2024/03/18 12:30:32;;;;;;;11.40;7.32;;;;;;;;;;5063218;28;20044;-61
2024/03/18 12:33:04;;;;;;;13.85;7.05;;;;;;;;;;5061385;28;20032;-61
2024/03/18 12:35:31;;;;;;;12.98;7.15;;;;;;;;;;5069722;28;20048;-61
2024/03/18 12:37:57;;;;;;;11.43;7.82;;;;;;;;;;5067282;28;20024;-61
2024/03/18 12:40:24;;;;;;;15.02;8.45;;;;;;;;;;5065560;28;20055;-61
2024/03/18 12:42:56;;;;;;;12.85;6.20;;;;;;;;;;5066699;28;20043;-61
2024/03/18 12:45:23;;;;;;;10.95;6.18;;;;;;;;;;5066535;28;20036;-65
2024/03/18 12:47:52;;;;;;;10.05;6.00;;;;;;;;;;5067720;28;20049;-62
2024/03/18 12:50:18;;;;;;;12.18;5.45;;;;;;;;;;5062388;28;20044;-62
2024/03/18 12:52:46;;;;;;;10.65;5.40;;;;;;;;;;5069514;28;20386;-63
2024/03/18 12:55:13;;;;;;;11.00;5.53;;;;;;;;;;5066035;28;20392;-62
2024/03/18 12:57:40;;;;;;;12.52;7.00;;;;;;;;;;5068327;28;20705;-61
2024/03/18 13:00:10;;;;;;;9.30;5.63;;;;;;;;;;5068967;28;20055;-60
2024/03/18 13:02:40;;;;;;;10.68;5.70;;;;;;;;;;5066135;28;20405;-60
2024/03/18 13:05:10;;;;;;;;;;;;;;;;;;5075414;28;20032;-60
2024/03/18 13:07:39;;;;;;;10.40;6.20;;;;;;;;;;5085658;28;19911;-60
2024/03/18 13:10:06;;;;;;;9.82;6.68;;;;;;;;;;5064959;28;20037;-61
2024/03/18 13:12:33;;;;;;;7.95;5.55;;;;;;;;;;5074364;28;20050;-62
2024/03/18 13:15:05;;;;;;;10.07;5.70;;;;;;;;;;5062957;28;20051;-60
2024/03/18 13:17:34;;;;;;;8.52;5.03;;;;;;;;;;5072330;28;20063;-60
2024/03/18 13:20:04;;;;;;;11.37;6.37;;;;;;;;;;5065099;28;20486;-63
2024/03/18 13:22:31;;;;;;;11.77;6.15;;;;;;;;;;5068541;28;20294;-62
2024/03/18 13:25:01;;;;;;;13.32;6.22;;;;;;;;;;5064850;28;20036;-60
2024/03/18 13:27:27;;;;;;;12.25;6.90;;;;;;;;;;5063503;28;20046;-61
2024/03/18 13:29:53;;;;;;;16.92;7.03;;;;;;;;;;5068531;28;20485;-61
2024/03/18 13:32:21;;;;;;;9.85;5.65;;;;;;;;;;5067070;28;20045;-61
2024/03/18 13:34:48;;;;;;;11.00;5.13;;;;;;;;;;5068227;28;20047;-60
2024/03/18 13:37:15;;;;;;;13.43;5.55;;;;;;;;;;5069442;28;20033;-61
2024/03/18 13:39:43;;;;;;;13.75;5.82;;;;;;;;;;5068926;28;20039;-63
2024/03/18 13:42:15;;;;;;;8.15;5.30;;;;;;;;;;5068438;28;20082;-61
2024/03/18 13:44:46;;;;;;;12.52;5.95;;;;;;;;;;5070137;28;20055;-61
2024/03/18 13:47:15;;;;;;;9.77;6.28;;;;;;;;;;5071003;28;20044;-61
2024/03/18 13:49:42;;;;;;;13.82;7.18;;;;;;;;;;5071556;28;20099;-61
2024/03/18 13:52:14;;;;;;;14.48;7.85;;;;;;;;;;5073424;28;20477;-61
2024/03/18 13:54:43;;;;;;;13.10;7.18;;;;;;;;;;5069643;28;20039;-61
2024/03/18 13:57:13;;;;;;;15.98;6.93;;;;;;;;;;5072746;28;20170;-61
2024/03/18 13:59:43;;;;;;;10.73;5.50;;;;;;;;;;5074510;28;20039;-60
2024/03/18 14:02:14;;;;;;;12.55;6.30;;;;;;;;;;5070395;28;20394;-61
2024/03/18 14:04:42;;;;;;;10.50;5.80;;;;;;;;;;5068206;28;20370;-60
2024/03/18 14:07:08;;;;;;;15.27;8.25;;;;;;;;;;5071753;28;20045;-62
2024/03/18 14:09:34;;;;;;;13.20;7.22;;;;;;;;;;5073606;28;20520;-61
2024/03/18 14:12:01;;;;;;;15.95;7.90;;;;;;;;;;5066757;28;20422;-60
2024/03/18 14:14:32;;;;;;;15.45;7.53;;;;;;;;;;5063152;28;20051;-60
2024/03/18 14:17:05;;;;;;;14.18;6.85;;;;;;;;;;5062738;28;20043;-60
2024/03/18 14:19:32;;;;;;;19.27;8.68;;;;;;;;;;5077083;28;21720;-60
2024/03/18 14:21:58;;;;;;;12.82;6.50;;;;;;;;;;5070262;28;20194;-61
2024/03/18 14:24:25;;;;;;;16.45;7.82;;;;;;;;;;5067306;28;20375;-61
2024/03/18 14:26:51;;;;;;;13.55;7.63;;;;;;;;;;5061602;28;20057;-61
2024/03/18 14:29:17;;;;;;;11.32;7.20;;;;;;;;;;5062561;28;20059;-60
2024/03/18 14:31:44;;;;;;;13.88;9.10;;;;;;;;;;5067039;28;20044;-60
2024/03/18 14:34:10;;;;;;;21.35;14.07;;;;;;;;;;5063348;28;20033;-61
2024/03/18 14:36:37;;;;;;;20.13;12.93;;;;;;;;;;5061613;28;20047;-60
2024/03/18 14:39:07;;;;;;;30.42;16.85;;;;;;;;;;5060744;28;20381;-60
2024/03/18 14:41:34;;;;;;;28.15;14.30;;;;;;;;;;5068766;28;20052;-60
2024/03/18 14:44:01;;;;;;;17.48;11.30;;;;;;;;;;5067979;28;20044;-60